sensor_id;sensor_type;location;lat;lon;timestamp;pressure;altitude;pressure_sealevel;temperature;humidity
71476;BME280;59286;59.274;17.974;2023-12-07T00:01:00;102211.63;;;-6.85;100.00
71476;BME280;59286;59.274;17.974;2023-12-07T00:03:25;102260.19;;;-6.60;100.00
71476;BME280;59286;59.274;17.974;2023-12-07T00:05:51;102212.72;;;-6.88;100.00
71476;BME280;59286;59.274;17.974;2023-12-07T00:08:17;102177.22;;;-6.99;100.00
71476;BME280;59286;59.274;17.974;2023-12-07T00:10:42;102205.16;;;-6.80;100.00
71476;BME280;59286;59.274;17.974;2023-12-07T00:13:07;102253.97;;;-6.48;100.00
71476;BME280;59286;59.274;17.974;2023-12-07T00:15:33;102204.19;;;-6.69;100.00
71476;BME280;59286;59.274;17.974;2023-12-07T00:17:59;102198.28;;;-6.70;100.00
71476;BME280;59286;59.274;17.974;2023-12-07T00:20:25;102225.84;;;-6.56;100.00
71476;BME280;59286;59.274;17.974;2023-12-07T00:22:51;102202.22;;;-6.75;100.00
71476;BME280;59286;59.274;17.974;2023-12-07T00:25:16;102227.81;;;-6.50;100.00
71476;BME280;59286;59.274;17.974;2023-12-07T00:27:41;102194.22;;;-6.63;100.00
71476;BME280;59286;59.274;17.974;2023-12-07T00:30:07;102193.22;;;-6.52;100.00
71476;BME280;59286;59.274;17.974;2023-12-07T00:32:34;102209.78;;;-6.39;100.00
71476;BME280;59286;59.274;17.974;2023-12-07T00:34:59;102204.91;;;-6.32;100.00
71476;BME280;59286;59.274;17.974;2023-12-07T00:37:24;102263.31;;;-5.94;100.00
71476;BME280;59286;59.274;17.974;2023-12-07T00:39:50;102197.47;;;-6.26;100.00
71476;BME280;59286;59.274;17.974;2023-12-07T00:42:15;102189.47;;;-6.31;100.00
71476;BME280;59286;59.274;17.974;2023-12-07T00:44:41;102194.25;;;-6.28;100.00
71476;BME280;59286;59.274;17.974;2023-12-07T00:47:07;102209.19;;;-6.15;100.00
71476;BME280;59286;59.274;17.974;2023-12-07T00:49:37;102178.75;;;-6.34;100.00
71476;BME280;59286;59.274;17.974;2023-12-07T00:52:03;102222.53;;;-6.04;100.00
71476;BME280;59286;59.274;17.974;2023-12-07T00:54:29;102211.00;;;-6.08;100.00
71476;BME280;59286;59.274;17.974;2023-12-07T00:56:54;102230.69;;;-6.00;100.00
71476;BME280;59286;59.274;17.974;2023-12-07T00:59:19;102208.97;;;-6.22;100.00
71476;BME280;59286;59.274;17.974;2023-12-07T01:01:45;102214.88;;;-6.04;100.00
71476;BME280;59286;59.274;17.974;2023-12-07T01:04:10;102259.09;;;-5.77;100.00
71476;BME280;59286;59.274;17.974;2023-12-07T01:06:38;102211.00;;;-6.08;100.00
71476;BME280;59286;59.274;17.974;2023-12-07T01:09:03;102181.84;;;-6.23;100.00
71476;BME280;59286;59.274;17.974;2023-12-07T01:11:29;102209.44;;;-6.09;100.00
71476;BME280;59286;59.274;17.974;2023-12-07T01:13:54;102210.78;;;-5.97;100.00
71476;BME280;59286;59.274;17.974;2023-12-07T01:16:20;102223.34;;;-5.85;100.00
71476;BME280;59286;59.274;17.974;2023-12-07T01:18:47;102207.88;;;-5.84;100.00
71476;BME280;59286;59.274;17.974;2023-12-07T01:21:13;102206.28;;;-5.85;100.00
71476;BME280;59286;59.274;17.974;2023-12-07T01:23:38;102221.03;;;-5.71;100.00
71476;BME280;59286;59.274;17.974;2023-12-07T01:26:04;102200.38;;;-5.85;100.00
71476;BME280;59286;59.274;17.974;2023-12-07T01:28:29;102220.56;;;-5.66;100.00
71476;BME280;59286;59.274;17.974;2023-12-07T01:30:54;102184.09;;;-5.84;100.00
71476;BME280;59286;59.274;17.974;2023-12-07T01:33:23;102199.47;;;-5.76;100.00
71476;BME280;59286;59.274;17.974;2023-12-07T01:35:51;102211.59;;;-5.70;100.00
71476;BME280;59286;59.274;17.974;2023-12-07T01:38:16;102233.56;;;-5.60;100.00
71476;BME280;59286;59.274;17.974;2023-12-07T01:40:42;102181.06;;;-5.88;100.00
71476;BME280;59286;59.274;17.974;2023-12-07T01:43:07;102180.41;;;-5.90;100.00
71476;BME280;59286;59.274;17.974;2023-12-07T01:45:33;102189.53;;;-5.79;100.00
71476;BME280;59286;59.274;17.974;2023-12-07T01:47:58;102174.38;;;-5.81;100.00
71476;BME280;59286;59.274;17.974;2023-12-07T01:50:25;102217.50;;;-5.52;100.00
71476;BME280;59286;59.274;17.974;2023-12-07T01:52:59;102230.13;;;-5.51;100.00
71476;BME280;59286;59.274;17.974;2023-12-07T01:55:25;102223.63;;;-5.45;100.00
71476;BME280;59286;59.274;17.974;2023-12-07T01:57:52;102252.53;;;-5.19;100.00
71476;BME280;59286;59.274;17.974;2023-12-07T02:00:18;102239.13;;;-5.39;100.00
71476;BME280;59286;59.274;17.974;2023-12-07T02:02:44;102190.91;;;-5.67;100.00
71476;BME280;59286;59.274;17.974;2023-12-07T02:05:12;102243.16;;;-5.36;100.00
71476;BME280;59286;59.274;17.974;2023-12-07T02:07:40;102211.44;;;-5.51;100.00
71476;BME280;59286;59.274;17.974;2023-12-07T02:10:06;102240.03;;;-5.48;100.00
71476;BME280;59286;59.274;17.974;2023-12-07T02:12:32;102188.34;;;-5.67;100.00
71476;BME280;59286;59.274;17.974;2023-12-07T02:15:00;102188.94;;;-5.73;100.00
71476;BME280;59286;59.274;17.974;2023-12-07T02:20:15;102197.59;;;-5.66;100.00
71476;BME280;59286;59.274;17.974;2023-12-07T02:22:53;102202.34;;;-5.71;100.00
71476;BME280;59286;59.274;17.974;2023-12-07T02:25:24;102209.28;;;-5.64;100.00
71476;BME280;59286;59.274;17.974;2023-12-07T02:27:51;102212.72;;;-5.73;100.00
71476;BME280;59286;59.274;17.974;2023-12-07T02:30:17;102191.03;;;-5.95;100.00
71476;BME280;59286;59.274;17.974;2023-12-07T02:32:45;102228.19;;;-5.74;100.00
71476;BME280;59286;59.274;17.974;2023-12-07T02:35:11;102255.75;;;-5.60;100.00
71476;BME280;59286;59.274;17.974;2023-12-07T02:37:58;102184.78;;;-6.00;100.00
71476;BME280;59286;59.274;17.974;2023-12-07T02:40:24;102254.28;;;-5.63;100.00
71476;BME280;59286;59.274;17.974;2023-12-07T02:42:51;102257.13;;;-5.66;100.00
71476;BME280;59286;59.274;17.974;2023-12-07T02:45:17;102208.84;;;-6.03;100.00
71476;BME280;59286;59.274;17.974;2023-12-07T02:47:42;102265.69;;;-5.75;100.00
71476;BME280;59286;59.274;17.974;2023-12-07T02:50:11;102260.72;;;-5.76;100.00
71476;BME280;59286;59.274;17.974;2023-12-07T02:52:37;102209.44;;;-6.09;100.00
71476;BME280;59286;59.274;17.974;2023-12-07T02:55:03;102200.75;;;-6.16;100.00
71476;BME280;59286;59.274;17.974;2023-12-07T02:57:29;102201.69;;;-6.17;100.00
71476;BME280;59286;59.274;17.974;2023-12-07T02:59:55;102211.81;;;-6.07;100.00
71476;BME280;59286;59.274;17.974;2023-12-07T03:02:21;102197.56;;;-6.18;100.00
71476;BME280;59286;59.274;17.974;2023-12-07T03:04:46;102175.47;;;-6.27;100.00
71476;BME280;59286;59.274;17.974;2023-12-07T03:07:12;102233.69;;;-5.87;100.00
71476;BME280;59286;59.274;17.974;2023-12-07T03:09:38;102158.19;;;-6.33;100.00
71476;BME280;59286;59.274;17.974;2023-12-07T03:12:03;102233.69;;;-5.87;100.00
71476;BME280;59286;59.274;17.974;2023-12-07T03:14:29;102184.50;;;-6.15;100.00
71476;BME280;59286;59.274;17.974;2023-12-07T03:16:54;102205.19;;;-6.00;100.00
71476;BME280;59286;59.274;17.974;2023-12-07T03:19:20;102206.00;;;-6.00;100.00
71476;BME280;59286;59.274;17.974;2023-12-07T03:21:45;102159.88;;;-6.24;100.00
71476;BME280;59286;59.274;17.974;2023-12-07T03:24:11;102160.16;;;-6.27;100.00
71476;BME280;59286;59.274;17.974;2023-12-07T03:26:41;102161.59;;;-6.24;100.00
71476;BME280;59286;59.274;17.974;2023-12-07T03:29:22;102235.19;;;-5.76;100.00
71476;BME280;59286;59.274;17.974;2023-12-07T03:31:50;102191.09;;;-6.04;100.00
71476;BME280;59286;59.274;17.974;2023-12-07T03:34:16;102198.66;;;-6.03;100.00
71476;BME280;59286;59.274;17.974;2023-12-07T03:36:53;102176.56;;;-6.12;100.00
71476;BME280;59286;59.274;17.974;2023-12-07T03:39:21;102161.53;;;-6.15;100.00
71476;BME280;59286;59.274;17.974;2023-12-07T03:42:00;102240.06;;;-5.65;100.00
71476;BME280;59286;59.274;17.974;2023-12-07T03:44:26;102197.91;;;-5.95;100.00
71476;BME280;59286;59.274;17.974;2023-12-07T03:46:52;102232.34;;;-5.73;100.00
71476;BME280;59286;59.274;17.974;2023-12-07T03:49:18;102216.63;;;-5.86;100.00
71476;BME280;59286;59.274;17.974;2023-12-07T03:51:43;102201.75;;;-5.91;100.00
71476;BME280;59286;59.274;17.974;2023-12-07T03:54:09;102201.63;;;-5.89;100.00
71476;BME280;59286;59.274;17.974;2023-12-07T03:56:34;102188.63;;;-5.96;100.00
71476;BME280;59286;59.274;17.974;2023-12-07T03:59:00;102198.56;;;-5.93;100.00
71476;BME280;59286;59.274;17.974;2023-12-07T04:01:27;102182.81;;;-6.06;100.00
71476;BME280;59286;59.274;17.974;2023-12-07T04:03:54;102156.97;;;-6.29;100.00
71476;BME280;59286;59.274;17.974;2023-12-07T04:06:26;102145.72;;;-6.36;100.00
71476;BME280;59286;59.274;17.974;2023-12-07T04:08:56;102167.34;;;-6.22;100.00
71476;BME280;59286;59.274;17.974;2023-12-07T04:11:21;102177.56;;;-6.22;100.00
71476;BME280;59286;59.274;17.974;2023-12-07T04:13:49;102172.47;;;-6.22;100.00
71476;BME280;59286;59.274;17.974;2023-12-07T04:16:14;102176.47;;;-6.20;100.00
71476;BME280;59286;59.274;17.974;2023-12-07T04:18:40;102198.41;;;-6.09;100.00
71476;BME280;59286;59.274;17.974;2023-12-07T04:21:05;102165.84;;;-6.33;100.00
71476;BME280;59286;59.274;17.974;2023-12-07T04:23:31;102218.75;;;-6.00;100.00
71476;BME280;59286;59.274;17.974;2023-12-07T04:25:57;102210.16;;;-5.99;100.00
71476;BME280;59286;59.274;17.974;2023-12-07T04:28:22;102214.81;;;-5.94;100.00
71476;BME280;59286;59.274;17.974;2023-12-07T04:30:48;102255.53;;;-5.67;100.00
71476;BME280;59286;59.274;17.974;2023-12-07T04:33:13;102196.44;;;-5.98;100.00
71476;BME280;59286;59.274;17.974;2023-12-07T04:35:39;102218.88;;;-5.83;100.00
71476;BME280;59286;59.274;17.974;2023-12-07T04:38:06;102178.72;;;-5.99;100.00
71476;BME280;59286;59.274;17.974;2023-12-07T04:40:32;102202.66;;;-5.74;100.00
71476;BME280;59286;59.274;17.974;2023-12-07T04:43:00;102203.16;;;-5.71;100.00
71476;BME280;59286;59.274;17.974;2023-12-07T04:45:25;102169.91;;;-5.79;100.00
71476;BME280;59286;59.274;17.974;2023-12-07T04:47:51;102223.94;;;-5.48;100.00
71476;BME280;59286;59.274;17.974;2023-12-07T04:50:16;102176.03;;;-5.72;100.00
71476;BME280;59286;59.274;17.974;2023-12-07T04:52:42;102215.69;;;-5.34;100.00
71476;BME280;59286;59.274;17.974;2023-12-07T04:55:07;102226.25;;;-5.29;100.00
71476;BME280;59286;59.274;17.974;2023-12-07T04:57:35;102191.34;;;-5.46;100.00
71476;BME280;59286;59.274;17.974;2023-12-07T05:00:02;102249.56;;;-5.07;100.00
71476;BME280;59286;59.274;17.974;2023-12-07T05:02:31;102162.56;;;-5.56;100.00
71476;BME280;59286;59.274;17.974;2023-12-07T05:04:57;102190.47;;;-5.37;100.00
71476;BME280;59286;59.274;17.974;2023-12-07T05:07:22;102177.38;;;-5.34;100.00
71476;BME280;59286;59.274;17.974;2023-12-07T05:09:49;102247.22;;;-4.92;100.00
71476;BME280;59286;59.274;17.974;2023-12-07T05:12:15;102222.78;;;-4.95;100.00
71476;BME280;59286;59.274;17.974;2023-12-07T05:14:41;102204.69;;;-5.01;100.00
71476;BME280;59286;59.274;17.974;2023-12-07T05:17:06;102181.31;;;-5.14;100.00
71476;BME280;59286;59.274;17.974;2023-12-07T05:19:32;102225.72;;;-4.81;100.00
71476;BME280;59286;59.274;17.974;2023-12-07T05:21:57;102191.31;;;-4.95;100.00
71476;BME280;59286;59.274;17.974;2023-12-07T05:24:23;102219.34;;;-4.77;100.00
71476;BME280;59286;59.274;17.974;2023-12-07T05:26:48;102171.78;;;-5.04;100.00
71476;BME280;59286;59.274;17.974;2023-12-07T05:29:17;102250.63;;;-4.50;100.00
71476;BME280;59286;59.274;17.974;2023-12-07T05:31:43;102224.84;;;-4.64;100.00
71476;BME280;59286;59.274;17.974;2023-12-07T05:34:08;102155.03;;;-4.99;100.00
71476;BME280;59286;59.274;17.974;2023-12-07T05:36:34;102181.13;;;-4.87;100.00
71476;BME280;59286;59.274;17.974;2023-12-07T05:39:00;102197.47;;;-4.72;100.00
71476;BME280;59286;59.274;17.974;2023-12-07T05:41:25;102195.25;;;-4.67;100.00
71476;BME280;59286;59.274;17.974;2023-12-07T05:43:51;102167.69;;;-4.81;100.00
71476;BME280;59286;59.274;17.974;2023-12-07T05:46:17;102210.28;;;-4.64;100.00
71476;BME280;59286;59.274;17.974;2023-12-07T05:48:43;102216.22;;;-4.55;100.00
71476;BME280;59286;59.274;17.974;2023-12-07T05:51:17;102188.84;;;-4.71;100.00
71476;BME280;59286;59.274;17.974;2023-12-07T05:53:44;102227.63;;;-4.34;100.00
71476;BME280;59286;59.274;17.974;2023-12-07T05:56:12;102177.03;;;-4.64;100.00
71476;BME280;59286;59.274;17.974;2023-12-07T05:58:37;102180.56;;;-4.57;100.00
71476;BME280;59286;59.274;17.974;2023-12-07T06:01:03;102162.94;;;-4.68;100.00
71476;BME280;59286;59.274;17.974;2023-12-07T06:03:29;102232.28;;;-4.21;100.00
71476;BME280;59286;59.274;17.974;2023-12-07T06:05:55;102201.09;;;-4.33;100.00
71476;BME280;59286;59.274;17.974;2023-12-07T06:08:21;102203.00;;;-4.27;100.00
71476;BME280;59286;59.274;17.974;2023-12-07T06:10:47;102175.63;;;-4.34;100.00
71476;BME280;59286;59.274;17.974;2023-12-07T06:13:13;102183.00;;;-4.23;100.00
71476;BME280;59286;59.274;17.974;2023-12-07T06:15:41;102164.28;;;-4.40;100.00
71476;BME280;59286;59.274;17.974;2023-12-07T06:18:06;102195.50;;;-4.28;100.00
71476;BME280;59286;59.274;17.974;2023-12-07T06:20:32;102202.88;;;-4.25;100.00
71476;BME280;59286;59.274;17.974;2023-12-07T06:22:58;102209.72;;;-4.18;100.00
71476;BME280;59286;59.274;17.974;2023-12-07T06:25:24;102182.50;;;-4.43;100.00
71476;BME280;59286;59.274;17.974;2023-12-07T06:27:50;102185.22;;;-4.36;100.00
71476;BME280;59286;59.274;17.974;2023-12-07T06:30:16;102162.84;;;-4.42;100.00
71476;BME280;59286;59.274;17.974;2023-12-07T06:32:41;102183.19;;;-4.33;100.00
71476;BME280;59286;59.274;17.974;2023-12-07T06:35:07;102187.97;;;-4.14;100.00
71476;BME280;59286;59.274;17.974;2023-12-07T06:37:33;102180.78;;;-4.26;100.00
71476;BME280;59286;59.274;17.974;2023-12-07T06:39:59;102234.41;;;-3.84;100.00
71476;BME280;59286;59.274;17.974;2023-12-07T06:42:25;102174.06;;;-4.19;100.00
71476;BME280;59286;59.274;17.974;2023-12-07T06:44:51;102185.44;;;-4.06;100.00
71476;BME280;59286;59.274;17.974;2023-12-07T06:47:17;102193.13;;;-3.98;100.00
71476;BME280;59286;59.274;17.974;2023-12-07T06:49:43;102192.78;;;-3.95;100.00
71476;BME280;59286;59.274;17.974;2023-12-07T06:52:09;102216.81;;;-3.79;100.00
71476;BME280;59286;59.274;17.974;2023-12-07T06:54:36;102174.56;;;-4.00;100.00
71476;BME280;59286;59.274;17.974;2023-12-07T06:57:01;102191.53;;;-3.82;100.00
71476;BME280;59286;59.274;17.974;2023-12-07T06:59:27;102217.44;;;-3.61;100.00
71476;BME280;59286;59.274;17.974;2023-12-07T07:01:52;102208.78;;;-3.68;100.00
71476;BME280;59286;59.274;17.974;2023-12-07T07:04:17;102252.97;;;-3.34;100.00
71476;BME280;59286;59.274;17.974;2023-12-07T07:06:43;102189.75;;;-3.66;100.00
71476;BME280;59286;59.274;17.974;2023-12-07T07:09:09;102178.22;;;-3.70;100.00
71476;BME280;59286;59.274;17.974;2023-12-07T07:11:35;102192.16;;;-3.72;100.00
71476;BME280;59286;59.274;17.974;2023-12-07T07:14:02;102162.38;;;-3.81;100.00
71476;BME280;59286;59.274;17.974;2023-12-07T07:16:28;102168.94;;;-3.71;100.00
71476;BME280;59286;59.274;17.974;2023-12-07T07:18:53;102144.44;;;-3.89;100.00
71476;BME280;59286;59.274;17.974;2023-12-07T07:21:18;102154.38;;;-3.78;100.00
71476;BME280;59286;59.274;17.974;2023-12-07T07:23:47;102151.50;;;-3.75;100.00
71476;BME280;59286;59.274;17.974;2023-12-07T07:26:12;102234.34;;;-3.20;100.00
71476;BME280;59286;59.274;17.974;2023-12-07T07:28:44;102210.03;;;-3.32;100.00
71476;BME280;59286;59.274;17.974;2023-12-07T07:31:10;102154.66;;;-3.65;100.00
71476;BME280;59286;59.274;17.974;2023-12-07T07:33:35;102190.53;;;-3.41;100.00
71476;BME280;59286;59.274;17.974;2023-12-07T07:36:01;102172.75;;;-3.51;100.00
71476;BME280;59286;59.274;17.974;2023-12-07T07:38:27;102209.69;;;-3.29;100.00
71476;BME280;59286;59.274;17.974;2023-12-07T07:40:52;102176.25;;;-3.44;100.00
71476;BME280;59286;59.274;17.974;2023-12-07T07:43:17;102198.31;;;-3.27;100.00
71476;BME280;59286;59.274;17.974;2023-12-07T07:45:46;102186.34;;;-3.34;100.00
71476;BME280;59286;59.274;17.974;2023-12-07T07:48:12;102179.28;;;-3.32;100.00
71476;BME280;59286;59.274;17.974;2023-12-07T07:50:37;102190.75;;;-3.20;100.00
71476;BME280;59286;59.274;17.974;2023-12-07T07:53:03;102172.06;;;-3.29;100.00
71476;BME280;59286;59.274;17.974;2023-12-07T07:55:29;102210.09;;;-3.02;100.00
71476;BME280;59286;59.274;17.974;2023-12-07T07:57:56;102164.19;;;-3.27;100.00
71476;BME280;59286;59.274;17.974;2023-12-07T08:00:22;102202.75;;;-3.05;100.00
71476;BME280;59286;59.274;17.974;2023-12-07T08:02:47;102210.88;;;-2.93;100.00
71476;BME280;59286;59.274;17.974;2023-12-07T08:05:12;102167.69;;;-3.20;100.00
71476;BME280;59286;59.274;17.974;2023-12-07T08:07:39;102193.91;;;-3.02;100.00
71476;BME280;59286;59.274;17.974;2023-12-07T08:10:06;102191.03;;;-2.99;100.00
71476;BME280;59286;59.274;17.974;2023-12-07T08:12:32;102226.56;;;-2.80;100.00
71476;BME280;59286;59.274;17.974;2023-12-07T08:14:58;102167.97;;;-3.07;100.00
71476;BME280;59286;59.274;17.974;2023-12-07T08:17:23;102252.75;;;-2.54;100.00
71476;BME280;59286;59.274;17.974;2023-12-07T08:19:51;102216.22;;;-2.72;100.00
71476;BME280;59286;59.274;17.974;2023-12-07T08:22:17;102222.25;;;-2.57;100.00
71476;BME280;59286;59.274;17.974;2023-12-07T08:24:42;102169.66;;;-2.83;100.00
71476;BME280;59286;59.274;17.974;2023-12-07T08:27:07;102186.06;;;-2.70;100.00
71476;BME280;59286;59.274;17.974;2023-12-07T08:29:34;102156.66;;;-2.82;100.00
71476;BME280;59286;59.274;17.974;2023-12-07T08:32:00;102190.81;;;-2.59;100.00
71476;BME280;59286;59.274;17.974;2023-12-07T08:34:25;102191.19;;;-2.62;100.00
71476;BME280;59286;59.274;17.974;2023-12-07T08:36:53;102207.09;;;-2.44;100.00
71476;BME280;59286;59.274;17.974;2023-12-07T08:39:19;102161.22;;;-2.69;100.00
71476;BME280;59286;59.274;17.974;2023-12-07T08:41:44;102182.91;;;-2.49;100.00
71476;BME280;59286;59.274;17.974;2023-12-07T08:44:10;102221.72;;;-2.22;100.00
71476;BME280;59286;59.274;17.974;2023-12-07T08:46:35;102245.25;;;-2.10;100.00
71476;BME280;59286;59.274;17.974;2023-12-07T08:49:01;102190.56;;;-2.41;100.00
71476;BME280;59286;59.274;17.974;2023-12-07T08:51:28;102150.16;;;-2.70;100.00
71476;BME280;59286;59.274;17.974;2023-12-07T08:53:53;102216.94;;;-2.25;100.00
71476;BME280;59286;59.274;17.974;2023-12-07T08:56:20;102200.00;;;-2.34;100.00
71476;BME280;59286;59.274;17.974;2023-12-07T08:58:48;102169.22;;;-2.42;100.00
71476;BME280;59286;59.274;17.974;2023-12-07T09:01:13;102251.72;;;-1.91;100.00
71476;BME280;59286;59.274;17.974;2023-12-07T09:03:38;102191.50;;;-2.34;100.00
71476;BME280;59286;59.274;17.974;2023-12-07T09:06:04;102203.94;;;-2.23;100.00
71476;BME280;59286;59.274;17.974;2023-12-07T09:08:31;102222.78;;;-2.08;100.00
71476;BME280;59286;59.274;17.974;2023-12-07T09:10:56;102189.69;;;-2.26;100.00
71476;BME280;59286;59.274;17.974;2023-12-07T09:13:24;102197.00;;;-2.15;100.00
71476;BME280;59286;59.274;17.974;2023-12-07T09:15:53;102212.28;;;-1.99;100.00
71476;BME280;59286;59.274;17.974;2023-12-07T09:18:19;102152.53;;;-2.38;100.00
71476;BME280;59286;59.274;17.974;2023-12-07T09:20:44;102181.81;;;-2.24;100.00
71476;BME280;59286;59.274;17.974;2023-12-07T09:23:15;102248.47;;;-1.85;100.00
71476;BME280;59286;59.274;17.974;2023-12-07T09:25:41;102224.72;;;-1.87;100.00
71476;BME280;59286;59.274;17.974;2023-12-07T09:28:10;102197.75;;;-2.14;100.00
71476;BME280;59286;59.274;17.974;2023-12-07T09:30:38;102181.22;;;-2.12;100.00
71476;BME280;59286;59.274;17.974;2023-12-07T09:33:04;102173.47;;;-2.26;100.00
71476;BME280;59286;59.274;17.974;2023-12-07T09:35:29;102237.06;;;-1.83;100.00
71476;BME280;59286;59.274;17.974;2023-12-07T09:37:55;102195.28;;;-2.00;100.00
71476;BME280;59286;59.274;17.974;2023-12-07T09:40:22;102161.34;;;-2.18;100.00
71476;BME280;59286;59.274;17.974;2023-12-07T09:42:49;102220.47;;;-1.80;100.00
71476;BME280;59286;59.274;17.974;2023-12-07T09:45:15;102207.00;;;-1.82;100.00
71476;BME280;59286;59.274;17.974;2023-12-07T09:47:43;102182.06;;;-1.97;100.00
71476;BME280;59286;59.274;17.974;2023-12-07T09:50:16;102205.94;;;-1.73;100.00
71476;BME280;59286;59.274;17.974;2023-12-07T09:52:43;102190.00;;;-1.83;100.00
71476;BME280;59286;59.274;17.974;2023-12-07T09:55:09;102164.09;;;-1.97;100.00
71476;BME280;59286;59.274;17.974;2023-12-07T09:57:37;102200.47;;;-1.70;100.00
71476;BME280;59286;59.274;17.974;2023-12-07T10:00:04;102187.81;;;-1.72;100.00
71476;BME280;59286;59.274;17.974;2023-12-07T10:02:30;102185.06;;;-1.70;100.00
71476;BME280;59286;59.274;17.974;2023-12-07T10:05:11;102156.84;;;-1.93;100.00
71476;BME280;59286;59.274;17.974;2023-12-07T10:07:43;102192.84;;;-1.64;100.00
71476;BME280;59286;59.274;17.974;2023-12-07T10:10:10;102180.25;;;-1.73;100.00
71476;BME280;59286;59.274;17.974;2023-12-07T10:12:52;102189.50;;;-1.64;100.00
71476;BME280;59286;59.274;17.974;2023-12-07T10:15:19;102215.50;;;-1.45;100.00
71476;BME280;59286;59.274;17.974;2023-12-07T10:17:52;102183.19;;;-1.62;100.00
71476;BME280;59286;59.274;17.974;2023-12-07T10:20:19;102138.88;;;-1.78;100.00
71476;BME280;59286;59.274;17.974;2023-12-07T10:22:49;102223.16;;;-1.22;100.00
71476;BME280;59286;59.274;17.974;2023-12-07T10:25:14;102213.50;;;-1.20;100.00
71476;BME280;59286;59.274;17.974;2023-12-07T10:27:41;102145.72;;;-1.56;100.00
71476;BME280;59286;59.274;17.974;2023-12-07T10:30:11;102170.22;;;-1.31;100.00
71476;BME280;59286;59.274;17.974;2023-12-07T10:32:38;102147.41;;;-1.34;100.00
71476;BME280;59286;59.274;17.974;2023-12-07T10:35:06;102175.59;;;-1.26;100.00
71476;BME280;59286;59.274;17.974;2023-12-07T10:37:32;102156.72;;;-1.33;100.00
71476;BME280;59286;59.274;17.974;2023-12-07T10:39:57;102172.34;;;-1.20;100.00
71476;BME280;59286;59.274;17.974;2023-12-07T10:42:24;102152.22;;;-1.31;100.00
71476;BME280;59286;59.274;17.974;2023-12-07T10:44:50;102140.69;;;-1.35;100.00
71476;BME280;59286;59.274;17.974;2023-12-07T10:47:19;102185.81;;;-1.04;100.00
71476;BME280;59286;59.274;17.974;2023-12-07T10:49:52;102177.22;;;-1.11;100.00
71476;BME280;59286;59.274;17.974;2023-12-07T10:52:23;102123.13;;;-1.46;100.00
71476;BME280;59286;59.274;17.974;2023-12-07T10:55:10;102184.81;;;-1.03;100.00
71476;BME280;59286;59.274;17.974;2023-12-07T10:57:37;102135.09;;;-1.24;100.00
71476;BME280;59286;59.274;17.974;2023-12-07T11:00:06;102177.19;;;-0.96;100.00
71476;BME280;59286;59.274;17.974;2023-12-07T11:02:33;102184.97;;;-0.89;100.00
71476;BME280;59286;59.274;17.974;2023-12-07T11:04:59;102093.88;;;-1.31;100.00
71476;BME280;59286;59.274;17.974;2023-12-07T11:07:32;102108.56;;;-1.25;100.00
71476;BME280;59286;59.274;17.974;2023-12-07T11:10:07;102178.06;;;-0.89;100.00
71476;BME280;59286;59.274;17.974;2023-12-07T11:12:40;102127.72;;;-1.13;100.00
71476;BME280;59286;59.274;17.974;2023-12-07T11:15:11;102134.00;;;-1.15;100.00
71476;BME280;59286;59.274;17.974;2023-12-07T11:17:50;102114.94;;;-1.21;100.00
71476;BME280;59286;59.274;17.974;2023-12-07T11:20:21;102138.50;;;-1.03;100.00
71476;BME280;59286;59.274;17.974;2023-12-07T11:22:49;102145.63;;;-1.05;100.00
71476;BME280;59286;59.274;17.974;2023-12-07T11:25:15;102114.69;;;-1.26;100.00
71476;BME280;59286;59.274;17.974;2023-12-07T11:27:44;102103.59;;;-1.26;100.00
71476;BME280;59286;59.274;17.974;2023-12-07T11:30:13;102171.84;;;-0.80;100.00
71476;BME280;59286;59.274;17.974;2023-12-07T11:32:39;102110.84;;;-1.15;100.00
71476;BME280;59286;59.274;17.974;2023-12-07T11:35:05;102142.59;;;-0.93;100.00
71476;BME280;59286;59.274;17.974;2023-12-07T11:38:09;102105.19;;;-1.11;100.00
71476;BME280;59286;59.274;17.974;2023-12-07T11:40:41;102098.81;;;-1.15;100.00
71476;BME280;59286;59.274;17.974;2023-12-07T11:43:08;102172.25;;;-0.62;100.00
71476;BME280;59286;59.274;17.974;2023-12-07T11:45:46;102174.81;;;-0.62;100.00
71476;BME280;59286;59.274;17.974;2023-12-07T11:48:15;102095.69;;;-1.10;100.00
71476;BME280;59286;59.274;17.974;2023-12-07T11:53:25;102144.31;;;-0.79;100.00
71476;BME280;59286;59.274;17.974;2023-12-07T11:55:51;102169.53;;;-0.54;100.00
71476;BME280;59286;59.274;17.974;2023-12-07T11:58:17;102140.47;;;-0.69;100.00
71476;BME280;59286;59.274;17.974;2023-12-07T12:00:43;102164.06;;;-0.51;100.00
71476;BME280;59286;59.274;17.974;2023-12-07T12:03:14;102105.03;;;-0.88;100.00
71476;BME280;59286;59.274;17.974;2023-12-07T12:05:42;102091.66;;;-0.98;100.00
71476;BME280;59286;59.274;17.974;2023-12-07T12:08:09;102098.38;;;-0.82;100.00
71476;BME280;59286;59.274;17.974;2023-12-07T12:10:35;102143.78;;;-0.54;100.00
71476;BME280;59286;59.274;17.974;2023-12-07T12:13:03;102081.28;;;-0.90;100.00
71476;BME280;59286;59.274;17.974;2023-12-07T12:15:30;102154.84;;;-0.39;100.00
71476;BME280;59286;59.274;17.974;2023-12-07T12:17:56;102110.38;;;-0.68;100.00
71476;BME280;59286;59.274;17.974;2023-12-07T12:20:23;102105.91;;;-0.81;100.00
71476;BME280;59286;59.274;17.974;2023-12-07T12:22:49;102111.56;;;-0.71;100.00
71476;BME280;59286;59.274;17.974;2023-12-07T12:25:15;102139.25;;;-0.52;100.00
71476;BME280;59286;59.274;17.974;2023-12-07T12:27:41;102087.31;;;-0.76;100.00
71476;BME280;59286;59.274;17.974;2023-12-07T12:30:07;102076.13;;;-0.90;100.00
71476;BME280;59286;59.274;17.974;2023-12-07T12:32:45;102124.44;;;-0.50;100.00
71476;BME280;59286;59.274;17.974;2023-12-07T12:35:11;102081.41;;;-0.77;100.00